DAL554 CYWG-KLAX
Flight info
| Callsign | DAL554 |
|---|---|
| Flight time | 3h 10m |
| Altitude | 40000 |
| Route | GOSAR DCT DEBMA DCT OGSIQ DCT DIK DCT KU06W DCT KU75S DCT EHK DCT PHYLI DCT BLD DCT SALYY ANJLL4 |
| Aircraft | A359/H-SDE2E3GHIJ3J4J5LM1ORWXY/LB1D1 |
Departure
| Time | 2026-05-05 19:52 |
|---|---|
| Airport | Winnipeg / James Armstrong Richardson International Airport (CYWG) |
Arrival
| Time | 2026-05-05 23:02 |
|---|---|
| Airport | Los Angeles International Airport (KLAX) |
| Time | Latitude | Longitude | Altitude | Speed | Heading |
|---|---|---|---|---|---|
| 2026-05-05 19:29 | 49.90683 | -97.22416 | 790 ft | 0 kts | 180° |
| 2026-05-05 19:30 | 49.90686 | -97.22416 | 790 ft | 3 kts | 179° |
| 2026-05-05 19:30 | 49.90712 | -97.22416 | 790 ft | 4 kts | 179° |
| 2026-05-05 19:30 | 49.90738 | -97.22417 | 790 ft | 4 kts | 192° |
| 2026-05-05 19:31 | 49.90758 | -97.22398 | 790 ft | 4 kts | 244° |
| 2026-05-05 19:31 | 49.90764 | -97.22360 | 790 ft | 3 kts | 271° |
| 2026-05-05 19:31 | 49.90764 | -97.22356 | 790 ft | 0 kts | 272° |
| 2026-05-05 19:42 | 49.90765 | -97.22390 | 790 ft | 6 kts | 272° |
| 2026-05-05 19:43 | 49.90764 | -97.22476 | 790 ft | 10 kts | 266° |
| 2026-05-05 19:43 | 49.90755 | -97.22593 | 789 ft | 12 kts | 261° |
| 2026-05-05 19:43 | 49.90737 | -97.22734 | 790 ft | 14 kts | 258° |
| 2026-05-05 19:43 | 49.90715 | -97.22898 | 789 ft | 17 kts | 258° |
| 2026-05-05 19:44 | 49.90696 | -97.23047 | 789 ft | 13 kts | 258° |
| 2026-05-05 19:44 | 49.90676 | -97.23197 | 788 ft | 15 kts | 258° |
| 2026-05-05 19:44 | 49.90616 | -97.23319 | 789 ft | 15 kts | 205° |
| 2026-05-05 19:44 | 49.90510 | -97.23378 | 790 ft | 16 kts | 198° |
| 2026-05-05 19:45 | 49.90398 | -97.23435 | 790 ft | 19 kts | 198° |
| 2026-05-05 19:45 | 49.90295 | -97.23431 | 794 ft | 14 kts | 147° |
| 2026-05-05 19:45 | 49.90215 | -97.23325 | 795 ft | 16 kts | 139° |
| 2026-05-05 19:45 | 49.90134 | -97.23213 | 794 ft | 14 kts | 138° |
| 2026-05-05 19:46 | 49.90083 | -97.23143 | 795 ft | 8 kts | 138° |
| 2026-05-05 19:46 | 49.90028 | -97.23068 | 793 ft | 13 kts | 138° |
| 2026-05-05 19:46 | 49.89950 | -97.22960 | 791 ft | 12 kts | 138° |
| 2026-05-05 19:46 | 49.89887 | -97.22874 | 791 ft | 13 kts | 138° |
| 2026-05-05 19:47 | 49.89808 | -97.22762 | 790 ft | 17 kts | 136° |
| 2026-05-05 19:47 | 49.89754 | -97.22684 | 792 ft | 10 kts | 137° |
| 2026-05-05 19:47 | 49.89696 | -97.22604 | 793 ft | 12 kts | 149° |
| 2026-05-05 19:47 | 49.89618 | -97.22642 | 792 ft | 14 kts | 221° |
| 2026-05-05 19:48 | 49.89552 | -97.22750 | 792 ft | 16 kts | 228° |
| 2026-05-05 19:48 | 49.89484 | -97.22915 | 789 ft | 20 kts | 261° |
| 2026-05-05 19:48 | 49.89492 | -97.23070 | 789 ft | 13 kts | 277° |
| 2026-05-05 19:48 | 49.89504 | -97.23223 | 786 ft | 11 kts | 277° |
| 2026-05-05 19:49 | 49.89510 | -97.23303 | 786 ft | 9 kts | 277° |
| 2026-05-05 19:49 | 49.89518 | -97.23406 | 787 ft | 10 kts | 277° |
| 2026-05-05 19:49 | 49.89527 | -97.23524 | 788 ft | 12 kts | 277° |
| 2026-05-05 19:49 | 49.89537 | -97.23654 | 789 ft | 13 kts | 277° |
| 2026-05-05 19:50 | 49.89548 | -97.23788 | 792 ft | 12 kts | 277° |
| 2026-05-05 19:50 | 49.89558 | -97.23918 | 794 ft | 12 kts | 277° |
| 2026-05-05 19:50 | 49.89569 | -97.24057 | 794 ft | 14 kts | 277° |
| 2026-05-05 19:50 | 49.89607 | -97.24143 | 794 ft | 9 kts | 330° |
| 2026-05-05 19:51 | 49.89655 | -97.24153 | 795 ft | 0 kts | 3° |
| 2026-05-05 19:51 | 49.89670 | -97.24152 | 795 ft | 15 kts | 3° |
| 2026-05-05 19:51 | 49.90032 | -97.24069 | 788 ft | 89 kts | 9° |
| 2026-05-05 19:52 | 49.90858 | -97.23876 | 801 ft | 148 kts | 6° |
| 2026-05-05 19:52 | 49.91927 | -97.23601 | 1348 ft | 157 kts | 5° |
| 2026-05-05 19:52 | 49.92981 | -97.23364 | 2205 ft | 159 kts | 4° |
| 2026-05-05 19:52 | 49.94145 | -97.23123 | 2659 ft | 180 kts | 4° |
| 2026-05-05 19:53 | 49.95450 | -97.22851 | 3178 ft | 200 kts | 5° |
| 2026-05-05 19:53 | 49.96909 | -97.22517 | 3679 ft | 223 kts | 6° |
| 2026-05-05 19:53 | 49.98508 | -97.22131 | 4029 ft | 239 kts | 6° |
| 2026-05-05 19:53 | 50.00191 | -97.21731 | 4495 ft | 248 kts | 6° |
| 2026-05-05 19:54 | 50.01892 | -97.21325 | 5577 ft | 246 kts | 6° |
| 2026-05-05 19:54 | 50.03585 | -97.20924 | 6653 ft | 246 kts | 6° |
| 2026-05-05 19:54 | 50.05289 | -97.20525 | 7615 ft | 250 kts | 7° |
| 2026-05-05 19:54 | 50.06997 | -97.20126 | 8540 ft | 254 kts | 6° |
| 2026-05-05 19:55 | 50.08759 | -97.19715 | 9530 ft | 258 kts | 7° |
| 2026-05-05 19:55 | 50.10554 | -97.19474 | 10380 ft | 265 kts | 357° |
| 2026-05-05 19:55 | 50.12424 | -97.19995 | 10807 ft | 286 kts | 339° |
| 2026-05-05 19:55 | 50.14098 | -97.21809 | 11290 ft | 305 kts | 311° |
| 2026-05-05 19:56 | 50.15019 | -97.24824 | 12109 ft | 317 kts | 283° |
| 2026-05-05 19:56 | 50.14928 | -97.28288 | 12985 ft | 330 kts | 257° |
| 2026-05-05 19:56 | 50.13818 | -97.31462 | 13846 ft | 343 kts | 231° |
| 2026-05-05 19:56 | 50.11899 | -97.33668 | 14618 ft | 355 kts | 207° |
| 2026-05-05 19:57 | 50.09506 | -97.34804 | 15373 ft | 364 kts | 193° |
| 2026-05-05 19:57 | 50.06989 | -97.35453 | 16148 ft | 370 kts | 191° |
| 2026-05-05 19:57 | 50.04440 | -97.36079 | 16959 ft | 372 kts | 192° |
| 2026-05-05 19:57 | 50.01885 | -97.36869 | 17750 ft | 376 kts | 195° |
| 2026-05-05 19:58 | 49.99334 | -97.37859 | 18552 ft | 379 kts | 197° |
| 2026-05-05 19:58 | 49.96791 | -97.39005 | 19212 ft | 384 kts | 199° |
| 2026-05-05 19:58 | 49.94261 | -97.40253 | 19946 ft | 387 kts | 201° |
| 2026-05-05 19:58 | 49.91785 | -97.41811 | 20595 ft | 387 kts | 214° |
| 2026-05-05 19:59 | 49.89828 | -97.44526 | 21273 ft | 383 kts | 236° |
| 2026-05-05 19:59 | 49.88286 | -97.47917 | 21874 ft | 390 kts | 232° |
| 2026-05-05 19:59 | 49.86132 | -97.50551 | 22543 ft | 403 kts | 210° |
| 2026-05-05 19:59 | 49.83482 | -97.52057 | 23160 ft | 410 kts | 195° |
| 2026-05-05 20:00 | 49.80685 | -97.53090 | 23764 ft | 415 kts | 198° |
| 2026-05-05 20:00 | 49.77868 | -97.54153 | 24325 ft | 420 kts | 193° |
| 2026-05-05 20:00 | 49.74956 | -97.54720 | 24897 ft | 424 kts | 185° |
| 2026-05-05 20:00 | 49.71994 | -97.54915 | 25443 ft | 429 kts | 184° |
| 2026-05-05 20:01 | 49.69008 | -97.55170 | 26047 ft | 430 kts | 187° |
| 2026-05-05 20:01 | 49.66089 | -97.55890 | 26604 ft | 431 kts | 196° |
| 2026-05-05 20:01 | 49.63254 | -97.57365 | 27155 ft | 432 kts | 207° |
| 2026-05-05 20:01 | 49.60590 | -97.59490 | 27724 ft | 432 kts | 214° |
| 2026-05-05 20:02 | 49.58052 | -97.62001 | 28273 ft | 434 kts | 218° |
| 2026-05-05 20:02 | 49.55587 | -97.64715 | 28798 ft | 437 kts | 219° |
| 2026-05-05 20:02 | 49.53134 | -97.67524 | 29295 ft | 441 kts | 220° |
| 2026-05-05 20:02 | 49.50669 | -97.70356 | 29807 ft | 444 kts | 219° |
| 2026-05-05 20:03 | 49.48168 | -97.73195 | 30273 ft | 448 kts | 219° |
| 2026-05-05 20:03 | 49.45671 | -97.75986 | 30696 ft | 451 kts | 219° |
| 2026-05-05 20:03 | 49.43113 | -97.78812 | 31061 ft | 455 kts | 218° |
| 2026-05-05 20:03 | 49.40522 | -97.81649 | 31427 ft | 459 kts | 218° |
| 2026-05-05 20:04 | 49.37914 | -97.84492 | 31784 ft | 462 kts | 218° |
| 2026-05-05 20:04 | 49.35283 | -97.87352 | 32152 ft | 466 kts | 218° |
| 2026-05-05 20:04 | 49.32627 | -97.90235 | 32496 ft | 469 kts | 218° |
| 2026-05-05 20:04 | 49.29950 | -97.93139 | 32847 ft | 472 kts | 218° |
| 2026-05-05 20:05 | 49.27261 | -97.96057 | 33194 ft | 476 kts | 218° |
| 2026-05-05 20:05 | 49.24690 | -97.99251 | 33488 ft | 476 kts | 226° |
| 2026-05-05 20:05 | 49.22487 | -98.02918 | 33841 ft | 474 kts | 235° |
| 2026-05-05 20:05 | 49.20512 | -98.06965 | 34119 ft | 477 kts | 237° |
| 2026-05-05 20:06 | 49.18612 | -98.11126 | 34357 ft | 479 kts | 238° |
| 2026-05-05 20:06 | 49.16739 | -98.15364 | 34607 ft | 482 kts | 238° |
| 2026-05-05 20:06 | 49.14875 | -98.19629 | 34930 ft | 482 kts | 238° |
| 2026-05-05 20:06 | 49.13013 | -98.23884 | 35300 ft | 482 kts | 238° |
| 2026-05-05 20:07 | 49.11146 | -98.28123 | 35635 ft | 482 kts | 238° |
| 2026-05-05 20:07 | 49.09270 | -98.32358 | 35962 ft | 482 kts | 238° |
| 2026-05-05 20:07 | 49.07409 | -98.36534 | 36267 ft | 482 kts | 238° |
| 2026-05-05 20:07 | 49.05521 | -98.40756 | 36577 ft | 483 kts | 238° |
| 2026-05-05 20:08 | 49.03624 | -98.44985 | 36891 ft | 483 kts | 238° |
| 2026-05-05 20:08 | 49.01727 | -98.49204 | 37176 ft | 483 kts | 238° |
| 2026-05-05 20:08 | 48.99825 | -98.53430 | 37460 ft | 483 kts | 238° |
| 2026-05-05 20:08 | 48.97925 | -98.57643 | 37757 ft | 483 kts | 238° |
| 2026-05-05 20:09 | 48.96028 | -98.61846 | 38129 ft | 481 kts | 238° |
| 2026-05-05 20:09 | 48.94131 | -98.66040 | 38415 ft | 481 kts | 238° |
| 2026-05-05 20:09 | 48.92254 | -98.70186 | 38666 ft | 482 kts | 238° |
| 2026-05-05 20:09 | 48.90329 | -98.74432 | 38866 ft | 482 kts | 238° |
| 2026-05-05 20:10 | 48.88451 | -98.78568 | 39043 ft | 482 kts | 237° |
| 2026-05-05 20:10 | 48.86539 | -98.82772 | 39209 ft | 483 kts | 237° |
| 2026-05-05 20:10 | 48.84632 | -98.86960 | 39392 ft | 483 kts | 237° |
| 2026-05-05 20:10 | 48.82717 | -98.91157 | 39576 ft | 483 kts | 237° |
| 2026-05-05 20:11 | 48.80799 | -98.95353 | 39769 ft | 483 kts | 237° |
| 2026-05-05 20:11 | 48.78885 | -98.99535 | 39948 ft | 483 kts | 237° |
| 2026-05-05 20:11 | 48.76963 | -99.03728 | 40041 ft | 485 kts | 237° |
| 2026-05-05 20:12 | 48.73138 | -99.12054 | 40057 ft | 485 kts | 237° |
| 2026-05-05 20:12 | 48.69282 | -99.20419 | 40051 ft | 483 kts | 237° |
| 2026-05-05 20:13 | 48.65436 | -99.28738 | 40058 ft | 482 kts | 237° |
| 2026-05-05 20:13 | 48.61583 | -99.37046 | 40060 ft | 482 kts | 237° |
| 2026-05-05 20:14 | 48.57755 | -99.45276 | 40062 ft | 482 kts | 237° |
| 2026-05-05 20:14 | 48.53895 | -99.53549 | 40061 ft | 482 kts | 237° |
| 2026-05-05 20:15 | 48.50028 | -99.61812 | 40052 ft | 483 kts | 237° |
| 2026-05-05 20:15 | 48.46150 | -99.70072 | 40043 ft | 483 kts | 237° |
| 2026-05-05 20:16 | 48.42292 | -99.78266 | 40035 ft | 483 kts | 237° |
| 2026-05-05 20:16 | 48.38404 | -99.86498 | 40029 ft | 483 kts | 237° |
| 2026-05-05 20:17 | 48.34509 | -99.94719 | 40020 ft | 483 kts | 237° |
| 2026-05-05 20:17 | 48.30608 | -100.02929 | 40025 ft | 483 kts | 237° |
| 2026-05-05 20:18 | 48.26723 | -100.11079 | 40030 ft | 483 kts | 237° |
| 2026-05-05 20:18 | 48.22807 | -100.19272 | 40040 ft | 483 kts | 237° |
| 2026-05-05 20:19 | 48.18885 | -100.27451 | 40042 ft | 483 kts | 237° |
| 2026-05-05 20:19 | 48.14971 | -100.35587 | 40057 ft | 480 kts | 237° |
| 2026-05-05 20:20 | 48.11091 | -100.43632 | 40058 ft | 480 kts | 236° |
| 2026-05-05 20:20 | 48.07180 | -100.51718 | 40060 ft | 480 kts | 236° |
| 2026-05-05 20:21 | 48.03260 | -100.59796 | 40062 ft | 480 kts | 236° |
| 2026-05-05 20:21 | 47.99340 | -100.67849 | 40045 ft | 480 kts | 236° |
| 2026-05-05 20:22 | 47.95432 | -100.75858 | 40069 ft | 481 kts | 236° |
| 2026-05-05 20:22 | 47.91493 | -100.83902 | 40063 ft | 480 kts | 236° |
| 2026-05-05 20:23 | 47.87554 | -100.91924 | 40063 ft | 478 kts | 236° |
| 2026-05-05 20:23 | 47.83625 | -100.99902 | 40052 ft | 478 kts | 236° |
| 2026-05-05 20:24 | 47.79719 | -101.07812 | 40055 ft | 478 kts | 236° |
| 2026-05-05 20:24 | 47.75780 | -101.15766 | 40052 ft | 478 kts | 236° |
| 2026-05-05 20:25 | 47.71830 | -101.23718 | 40057 ft | 478 kts | 236° |
| 2026-05-05 20:25 | 47.67873 | -101.31660 | 40061 ft | 478 kts | 236° |
| 2026-05-05 20:26 | 47.63940 | -101.39531 | 40045 ft | 477 kts | 236° |
| 2026-05-05 20:26 | 47.59993 | -101.47407 | 40061 ft | 476 kts | 236° |
| 2026-05-05 20:27 | 47.56041 | -101.55272 | 40064 ft | 476 kts | 236° |
| 2026-05-05 20:27 | 47.52081 | -101.63131 | 40064 ft | 476 kts | 236° |
| 2026-05-05 20:28 | 47.48146 | -101.70916 | 40063 ft | 476 kts | 236° |
| 2026-05-05 20:28 | 47.44176 | -101.78749 | 40062 ft | 476 kts | 236° |
| 2026-05-05 20:29 | 47.40132 | -101.86513 | 40065 ft | 478 kts | 233° |
| 2026-05-05 20:29 | 47.35793 | -101.93862 | 40066 ft | 477 kts | 231° |
| 2026-05-05 20:30 | 47.31387 | -102.01159 | 40066 ft | 476 kts | 231° |
| 2026-05-05 20:30 | 47.27022 | -102.08494 | 40067 ft | 476 kts | 232° |
| 2026-05-05 20:31 | 47.22686 | -102.15846 | 40069 ft | 476 kts | 232° |
| 2026-05-05 20:31 | 47.18347 | -102.23201 | 40067 ft | 476 kts | 232° |
| 2026-05-05 20:32 | 47.14034 | -102.30489 | 40064 ft | 476 kts | 232° |
| 2026-05-05 20:32 | 47.09690 | -102.37804 | 40063 ft | 474 kts | 232° |
| 2026-05-05 20:33 | 47.05359 | -102.45076 | 40060 ft | 474 kts | 232° |
| 2026-05-05 20:33 | 47.01021 | -102.52343 | 40050 ft | 474 kts | 232° |
| 2026-05-05 20:34 | 46.96703 | -102.59555 | 40042 ft | 474 kts | 232° |
| 2026-05-05 20:34 | 46.92354 | -102.66801 | 40035 ft | 474 kts | 232° |
| 2026-05-05 20:35 | 46.87995 | -102.74044 | 40018 ft | 474 kts | 232° |
| 2026-05-05 20:35 | 46.83591 | -102.81199 | 40026 ft | 474 kts | 229° |
| 2026-05-05 20:36 | 46.78926 | -102.87939 | 40030 ft | 475 kts | 227° |
| 2026-05-05 20:36 | 46.74183 | -102.94631 | 40033 ft | 475 kts | 227° |
| 2026-05-05 20:37 | 46.69466 | -103.01376 | 40029 ft | 474 kts | 228° |
| 2026-05-05 20:37 | 46.64783 | -103.08131 | 40037 ft | 474 kts | 228° |
| 2026-05-05 20:38 | 46.60088 | -103.14905 | 40062 ft | 475 kts | 228° |
| 2026-05-05 20:38 | 46.55428 | -103.21608 | 40072 ft | 475 kts | 228° |
| 2026-05-05 20:39 | 46.50732 | -103.28342 | 40070 ft | 475 kts | 228° |
| 2026-05-05 20:39 | 46.46028 | -103.35069 | 40075 ft | 475 kts | 228° |
| 2026-05-05 20:40 | 46.41323 | -103.41780 | 40068 ft | 475 kts | 228° |
| 2026-05-05 20:40 | 46.36634 | -103.48451 | 40062 ft | 476 kts | 227° |
| 2026-05-05 20:41 | 46.31915 | -103.55147 | 40064 ft | 475 kts | 227° |
| 2026-05-05 20:41 | 46.27201 | -103.61819 | 40072 ft | 474 kts | 227° |
| 2026-05-05 20:42 | 46.22479 | -103.68487 | 40064 ft | 474 kts | 227° |
| 2026-05-05 20:42 | 46.17781 | -103.75104 | 40083 ft | 475 kts | 227° |
| 2026-05-05 20:43 | 46.13041 | -103.81762 | 40091 ft | 476 kts | 227° |
| 2026-05-05 20:43 | 46.08309 | -103.88391 | 40093 ft | 473 kts | 227° |
| 2026-05-05 20:44 | 46.03590 | -103.94986 | 40099 ft | 473 kts | 227° |
| 2026-05-05 20:44 | 45.98899 | -104.01519 | 40096 ft | 473 kts | 227° |
| 2026-05-05 20:45 | 45.91391 | -104.10843 | 40102 ft | 477 kts | 223° |
| 2026-05-05 20:45 | 45.86310 | -104.16948 | 40104 ft | 476 kts | 224° |
| 2026-05-05 20:46 | 45.81288 | -104.23064 | 40099 ft | 476 kts | 224° |
| 2026-05-05 20:46 | 45.76255 | -104.29231 | 40087 ft | 476 kts | 224° |
| 2026-05-05 20:47 | 45.71213 | -104.35405 | 40096 ft | 477 kts | 224° |
| 2026-05-05 20:47 | 45.66166 | -104.41566 | 40101 ft | 477 kts | 224° |
| 2026-05-05 20:48 | 45.61113 | -104.47715 | 40092 ft | 476 kts | 224° |
| 2026-05-05 20:48 | 45.56113 | -104.53784 | 40097 ft | 475 kts | 224° |
| 2026-05-05 20:49 | 45.51074 | -104.59888 | 40099 ft | 476 kts | 224° |
| 2026-05-05 20:49 | 45.46019 | -104.65997 | 40099 ft | 476 kts | 224° |
| 2026-05-05 20:50 | 45.40959 | -104.72095 | 40087 ft | 476 kts | 224° |
| 2026-05-05 20:50 | 45.35944 | -104.78123 | 40085 ft | 475 kts | 224° |
| 2026-05-05 20:51 | 45.30900 | -104.84173 | 40067 ft | 474 kts | 224° |
| 2026-05-05 20:51 | 45.25851 | -104.90216 | 40081 ft | 475 kts | 224° |
| 2026-05-05 20:52 | 45.20784 | -104.96265 | 40080 ft | 476 kts | 224° |
| 2026-05-05 20:52 | 45.15752 | -105.02256 | 40072 ft | 475 kts | 224° |
| 2026-05-05 20:53 | 45.10702 | -105.08253 | 40073 ft | 473 kts | 224° |
| 2026-05-05 20:53 | 45.05658 | -105.14231 | 40066 ft | 473 kts | 224° |
| 2026-05-05 20:54 | 45.00611 | -105.20200 | 40066 ft | 473 kts | 224° |
| 2026-05-05 20:54 | 44.95597 | -105.26114 | 40058 ft | 473 kts | 224° |
| 2026-05-05 20:55 | 44.90552 | -105.32049 | 40060 ft | 471 kts | 224° |
| 2026-05-05 20:55 | 44.85521 | -105.37955 | 40051 ft | 470 kts | 224° |
| 2026-05-05 20:56 | 44.80481 | -105.43859 | 40053 ft | 471 kts | 224° |
| 2026-05-05 20:56 | 44.75434 | -105.49757 | 40044 ft | 472 kts | 224° |
| 2026-05-05 20:57 | 44.70411 | -105.55612 | 40023 ft | 472 kts | 224° |
| 2026-05-05 20:57 | 44.65364 | -105.61480 | 40036 ft | 470 kts | 224° |
| 2026-05-05 20:58 | 44.60328 | -105.67322 | 40036 ft | 470 kts | 224° |
| 2026-05-05 20:58 | 44.55310 | -105.73133 | 40030 ft | 471 kts | 224° |
| 2026-05-05 20:59 | 44.50257 | -105.78970 | 40030 ft | 471 kts | 224° |
| 2026-05-05 20:59 | 44.45199 | -105.84797 | 40021 ft | 470 kts | 224° |
| 2026-05-05 21:00 | 44.40160 | -105.90587 | 40018 ft | 469 kts | 224° |
| 2026-05-05 21:00 | 44.35146 | -105.96340 | 40001 ft | 470 kts | 224° |
| 2026-05-05 21:01 | 44.30107 | -106.02109 | 39985 ft | 471 kts | 224° |
| 2026-05-05 21:01 | 44.25040 | -106.07894 | 39985 ft | 471 kts | 224° |
| 2026-05-05 21:02 | 44.19975 | -106.13660 | 39977 ft | 470 kts | 224° |
| 2026-05-05 21:02 | 44.14916 | -106.19409 | 39973 ft | 469 kts | 224° |
| 2026-05-05 21:03 | 44.09882 | -106.25118 | 39970 ft | 470 kts | 224° |
| 2026-05-05 21:03 | 44.04805 | -106.30863 | 39972 ft | 471 kts | 224° |
| 2026-05-05 21:04 | 43.99721 | -106.36601 | 39972 ft | 470 kts | 224° |
| 2026-05-05 21:04 | 43.94654 | -106.42304 | 39979 ft | 468 kts | 224° |
| 2026-05-05 21:05 | 43.89626 | -106.47955 | 39990 ft | 469 kts | 223° |
| 2026-05-05 21:05 | 43.84558 | -106.53638 | 40012 ft | 469 kts | 223° |
| 2026-05-05 21:06 | 43.79476 | -106.59322 | 40012 ft | 469 kts | 223° |
| 2026-05-05 21:06 | 43.74398 | -106.64989 | 40048 ft | 468 kts | 223° |
| 2026-05-05 21:07 | 43.69370 | -106.70587 | 40019 ft | 467 kts | 223° |
| 2026-05-05 21:07 | 43.64290 | -106.76232 | 40042 ft | 470 kts | 223° |
| 2026-05-05 21:08 | 43.59196 | -106.81881 | 40069 ft | 470 kts | 223° |
| 2026-05-05 21:08 | 43.54085 | -106.87534 | 40067 ft | 470 kts | 223° |
| 2026-05-05 21:09 | 43.49017 | -106.93126 | 40068 ft | 471 kts | 223° |
| 2026-05-05 21:09 | 43.43902 | -106.98759 | 40069 ft | 471 kts | 223° |
| 2026-05-05 21:10 | 43.38782 | -107.04384 | 40069 ft | 471 kts | 223° |
| 2026-05-05 21:10 | 43.33653 | -107.10008 | 40068 ft | 473 kts | 223° |
| 2026-05-05 21:11 | 43.28541 | -107.15600 | 40061 ft | 472 kts | 223° |
| 2026-05-05 21:11 | 43.23419 | -107.21187 | 40051 ft | 469 kts | 223° |
| 2026-05-05 21:12 | 43.18316 | -107.26745 | 40050 ft | 469 kts | 223° |
| 2026-05-05 21:12 | 43.13205 | -107.32300 | 40054 ft | 469 kts | 223° |
| 2026-05-05 21:13 | 43.08128 | -107.37806 | 40021 ft | 469 kts | 223° |
| 2026-05-05 21:13 | 43.03024 | -107.43325 | 40026 ft | 466 kts | 223° |
| 2026-05-05 21:14 | 42.97950 | -107.48802 | 40011 ft | 465 kts | 223° |
| 2026-05-05 21:14 | 42.92876 | -107.54270 | 40002 ft | 465 kts | 223° |
| 2026-05-05 21:15 | 42.87834 | -107.59691 | 40004 ft | 465 kts | 223° |
| 2026-05-05 21:15 | 42.82756 | -107.65137 | 39967 ft | 464 kts | 223° |
| 2026-05-05 21:16 | 42.77696 | -107.70551 | 39974 ft | 461 kts | 223° |
| 2026-05-05 21:16 | 42.72648 | -107.75943 | 39950 ft | 461 kts | 223° |
| 2026-05-05 21:17 | 42.67631 | -107.81291 | 39952 ft | 462 kts | 223° |
| 2026-05-05 21:17 | 42.62574 | -107.86670 | 39951 ft | 462 kts | 223° |
| 2026-05-05 21:18 | 42.57516 | -107.92036 | 39945 ft | 461 kts | 223° |
| 2026-05-05 21:18 | 42.52510 | -107.97338 | 39944 ft | 459 kts | 223° |
| 2026-05-05 21:19 | 42.47500 | -108.02715 | 39943 ft | 458 kts | 225° |
| 2026-05-05 21:19 | 42.42722 | -108.08382 | 39944 ft | 456 kts | 227° |
| 2026-05-05 21:20 | 42.37981 | -108.14108 | 39942 ft | 457 kts | 226° |
| 2026-05-05 21:20 | 42.33243 | -108.19738 | 39944 ft | 457 kts | 226° |
| 2026-05-05 21:21 | 42.28469 | -108.25345 | 39945 ft | 456 kts | 226° |
| 2026-05-05 21:21 | 42.23668 | -108.30958 | 39942 ft | 456 kts | 226° |
| 2026-05-05 21:22 | 42.18869 | -108.36560 | 39937 ft | 456 kts | 226° |
| 2026-05-05 21:22 | 42.14099 | -108.42117 | 39932 ft | 456 kts | 226° |
| 2026-05-05 21:23 | 42.09291 | -108.47709 | 39933 ft | 457 kts | 226° |
| 2026-05-05 21:23 | 42.04478 | -108.53295 | 39924 ft | 457 kts | 226° |
| 2026-05-05 21:24 | 41.99662 | -108.58872 | 39925 ft | 457 kts | 226° |
| 2026-05-05 21:24 | 41.94874 | -108.64407 | 39916 ft | 457 kts | 226° |
| 2026-05-05 21:25 | 41.90055 | -108.69964 | 39919 ft | 457 kts | 226° |
| 2026-05-05 21:25 | 41.85229 | -108.75519 | 39911 ft | 457 kts | 225° |
| 2026-05-05 21:26 | 41.80403 | -108.81061 | 39928 ft | 458 kts | 225° |
| 2026-05-05 21:26 | 41.75594 | -108.86575 | 39944 ft | 459 kts | 225° |
| 2026-05-05 21:27 | 41.70741 | -108.92128 | 39963 ft | 459 kts | 225° |
| 2026-05-05 21:27 | 41.65884 | -108.97671 | 39979 ft | 459 kts | 225° |
| 2026-05-05 21:28 | 41.61027 | -109.03204 | 39976 ft | 459 kts | 225° |
| 2026-05-05 21:28 | 41.56199 | -109.08692 | 39988 ft | 459 kts | 225° |
| 2026-05-05 21:29 | 41.51335 | -109.14211 | 39977 ft | 459 kts | 225° |
| 2026-05-05 21:29 | 41.46447 | -109.19747 | 39885 ft | 462 kts | 225° |
| 2026-05-05 21:30 | 41.41548 | -109.25283 | 39879 ft | 462 kts | 224° |
| 2026-05-05 21:30 | 41.36678 | -109.30774 | 39847 ft | 462 kts | 224° |
| 2026-05-05 21:31 | 41.31768 | -109.36299 | 39865 ft | 462 kts | 224° |
| 2026-05-05 21:31 | 41.26854 | -109.41817 | 39844 ft | 462 kts | 224° |
| 2026-05-05 21:32 | 41.21949 | -109.47315 | 39829 ft | 463 kts | 224° |
| 2026-05-05 21:32 | 41.17038 | -109.52809 | 39835 ft | 466 kts | 224° |
| 2026-05-05 21:33 | 41.12077 | -109.58347 | 39838 ft | 466 kts | 224° |
| 2026-05-05 21:33 | 41.07107 | -109.63882 | 39834 ft | 466 kts | 224° |
| 2026-05-05 21:34 | 41.02137 | -109.69406 | 39836 ft | 466 kts | 224° |
| 2026-05-05 21:34 | 40.97212 | -109.74869 | 39837 ft | 467 kts | 224° |
| 2026-05-05 21:35 | 40.92238 | -109.80376 | 39830 ft | 467 kts | 223° |
| 2026-05-05 21:35 | 40.87245 | -109.85892 | 39844 ft | 469 kts | 223° |
| 2026-05-05 21:36 | 40.82233 | -109.91419 | 39843 ft | 470 kts | 223° |
| 2026-05-05 21:36 | 40.77242 | -109.96913 | 39851 ft | 471 kts | 223° |
| 2026-05-05 21:37 | 40.72209 | -110.02440 | 39846 ft | 471 kts | 223° |
| 2026-05-05 21:37 | 40.67175 | -110.07956 | 39856 ft | 471 kts | 223° |
| 2026-05-05 21:38 | 40.62141 | -110.13462 | 39852 ft | 471 kts | 223° |
| 2026-05-05 21:38 | 40.57127 | -110.18936 | 39850 ft | 474 kts | 223° |
| 2026-05-05 21:39 | 40.52044 | -110.24474 | 39836 ft | 475 kts | 223° |
| 2026-05-05 21:39 | 40.46954 | -110.30005 | 39840 ft | 475 kts | 223° |
| 2026-05-05 21:40 | 40.41855 | -110.35536 | 39820 ft | 475 kts | 223° |
| 2026-05-05 21:40 | 40.36789 | -110.41021 | 39821 ft | 475 kts | 223° |
| 2026-05-05 21:41 | 40.31691 | -110.46530 | 39812 ft | 474 kts | 222° |
| 2026-05-05 21:41 | 40.26614 | -110.52003 | 39805 ft | 475 kts | 221° |
| 2026-05-05 21:42 | 40.21513 | -110.57493 | 39793 ft | 475 kts | 221° |
| 2026-05-05 21:42 | 40.16433 | -110.62949 | 39793 ft | 475 kts | 221° |
| 2026-05-05 21:43 | 40.11321 | -110.68428 | 39792 ft | 475 kts | 221° |
| 2026-05-05 21:43 | 40.06212 | -110.73892 | 39788 ft | 475 kts | 221° |
| 2026-05-05 21:44 | 40.01105 | -110.79344 | 39785 ft | 474 kts | 221° |
| 2026-05-05 21:44 | 39.95991 | -110.84793 | 39786 ft | 476 kts | 221° |
| 2026-05-05 21:45 | 39.90889 | -110.90219 | 39801 ft | 477 kts | 221° |
| 2026-05-05 21:45 | 39.85738 | -110.95685 | 39807 ft | 478 kts | 221° |
| 2026-05-05 21:46 | 39.80588 | -111.01137 | 39823 ft | 477 kts | 221° |
| 2026-05-05 21:46 | 39.75443 | -111.06575 | 39822 ft | 476 kts | 221° |
| 2026-05-05 21:47 | 39.70346 | -111.11953 | 39809 ft | 476 kts | 221° |
| 2026-05-05 21:47 | 39.65201 | -111.17370 | 39817 ft | 477 kts | 220° |
| 2026-05-05 21:48 | 39.60029 | -111.22805 | 39800 ft | 479 kts | 220° |
| 2026-05-05 21:48 | 39.54844 | -111.28240 | 39815 ft | 479 kts | 221° |
| 2026-05-05 21:49 | 39.49669 | -111.33654 | 39799 ft | 477 kts | 220° |
| 2026-05-05 21:49 | 39.44538 | -111.39014 | 39801 ft | 477 kts | 221° |
| 2026-05-05 21:50 | 39.39371 | -111.44403 | 39796 ft | 477 kts | 220° |
| 2026-05-05 21:50 | 39.34199 | -111.49787 | 39794 ft | 477 kts | 220° |
| 2026-05-05 21:51 | 39.29027 | -111.55156 | 39786 ft | 477 kts | 220° |
| 2026-05-05 21:51 | 39.23927 | -111.60439 | 39781 ft | 471 kts | 220° |
| 2026-05-05 21:52 | 39.16271 | -111.68355 | 39770 ft | 470 kts | 221° |
| 2026-05-05 21:53 | 39.11158 | -111.73627 | 39768 ft | 471 kts | 220° |
| 2026-05-05 21:53 | 39.06076 | -111.78861 | 39763 ft | 471 kts | 220° |
| 2026-05-05 21:54 | 39.00946 | -111.84133 | 39762 ft | 473 kts | 220° |
| 2026-05-05 21:54 | 38.95822 | -111.89384 | 39757 ft | 470 kts | 220° |
| 2026-05-05 21:55 | 38.90748 | -111.94578 | 39777 ft | 469 kts | 220° |
| 2026-05-05 21:55 | 38.85640 | -111.99794 | 39795 ft | 469 kts | 220° |
| 2026-05-05 21:56 | 38.80536 | -112.05002 | 39804 ft | 470 kts | 219° |
| 2026-05-05 21:56 | 38.75419 | -112.10208 | 39802 ft | 470 kts | 220° |
| 2026-05-05 21:57 | 38.70343 | -112.15364 | 39793 ft | 468 kts | 220° |
| 2026-05-05 21:57 | 38.65245 | -112.20535 | 39768 ft | 468 kts | 220° |
| 2026-05-05 21:58 | 38.60144 | -112.25698 | 39772 ft | 468 kts | 220° |
| 2026-05-05 21:58 | 38.55035 | -112.30858 | 39770 ft | 468 kts | 219° |
| 2026-05-05 21:59 | 38.49963 | -112.35973 | 39770 ft | 468 kts | 219° |
| 2026-05-05 21:59 | 38.44850 | -112.41121 | 39773 ft | 468 kts | 219° |
| 2026-05-05 22:00 | 38.39733 | -112.46262 | 39777 ft | 468 kts | 219° |
| 2026-05-05 22:00 | 38.34593 | -112.51416 | 39780 ft | 473 kts | 219° |
| 2026-05-05 22:01 | 38.29453 | -112.56559 | 39781 ft | 473 kts | 219° |
| 2026-05-05 22:01 | 38.24281 | -112.61726 | 39782 ft | 474 kts | 219° |
| 2026-05-05 22:02 | 38.19104 | -112.66889 | 39782 ft | 471 kts | 219° |
| 2026-05-05 22:02 | 38.13968 | -112.72001 | 39778 ft | 468 kts | 219° |
| 2026-05-05 22:03 | 38.08843 | -112.77092 | 39789 ft | 467 kts | 219° |
| 2026-05-05 22:03 | 38.03749 | -112.82144 | 39788 ft | 470 kts | 219° |
| 2026-05-05 22:04 | 37.98588 | -112.87253 | 39791 ft | 471 kts | 219° |
| 2026-05-05 22:04 | 37.93425 | -112.92353 | 39835 ft | 471 kts | 218° |
| 2026-05-05 22:05 | 37.88273 | -112.97432 | 39870 ft | 468 kts | 218° |
| 2026-05-05 22:05 | 37.83166 | -113.02460 | 39900 ft | 468 kts | 218° |
| 2026-05-05 22:06 | 37.78028 | -113.07512 | 39924 ft | 468 kts | 218° |
| 2026-05-05 22:06 | 37.72905 | -113.12591 | 39924 ft | 468 kts | 219° |
| 2026-05-05 22:07 | 37.67768 | -113.17705 | 39925 ft | 471 kts | 219° |
| 2026-05-05 22:07 | 37.62619 | -113.22819 | 39908 ft | 470 kts | 219° |
| 2026-05-05 22:08 | 37.57520 | -113.27868 | 39879 ft | 469 kts | 219° |
| 2026-05-05 22:08 | 37.52386 | -113.32938 | 39854 ft | 469 kts | 219° |
| 2026-05-05 22:09 | 37.47250 | -113.38002 | 39825 ft | 469 kts | 219° |
| 2026-05-05 22:09 | 37.42112 | -113.43057 | 39809 ft | 469 kts | 218° |
| 2026-05-05 22:10 | 37.37010 | -113.48070 | 39804 ft | 468 kts | 218° |
| 2026-05-05 22:10 | 37.31893 | -113.53088 | 39810 ft | 466 kts | 219° |
| 2026-05-05 22:11 | 37.26790 | -113.58085 | 39808 ft | 465 kts | 218° |
| 2026-05-05 22:11 | 37.22545 | -113.62233 | 39843 ft | 465 kts | 218° |
| 2026-05-05 22:12 | 37.16602 | -113.68029 | 39847 ft | 465 kts | 219° |
| 2026-05-05 22:12 | 37.11493 | -113.73003 | 39842 ft | 465 kts | 218° |
| 2026-05-05 22:13 | 37.06374 | -113.77981 | 39842 ft | 466 kts | 218° |
| 2026-05-05 22:13 | 37.02109 | -113.82121 | 39835 ft | 467 kts | 218° |
| 2026-05-05 22:14 | 36.96137 | -113.87907 | 39822 ft | 467 kts | 218° |
| 2026-05-05 22:14 | 36.91076 | -113.92983 | 39810 ft | 467 kts | 220° |
| 2026-05-05 22:15 | 36.86098 | -113.98199 | 39812 ft | 467 kts | 220° |
| 2026-05-05 22:15 | 36.81962 | -114.02524 | 39809 ft | 466 kts | 220° |
| 2026-05-05 22:16 | 36.76973 | -114.07692 | 39813 ft | 466 kts | 220° |
| 2026-05-05 22:16 | 36.71147 | -114.13687 | 39801 ft | 468 kts | 220° |
| 2026-05-05 22:17 | 36.66936 | -114.18010 | 39804 ft | 469 kts | 220° |
| 2026-05-05 22:17 | 36.61935 | -114.23137 | 39802 ft | 469 kts | 220° |
| 2026-05-05 22:18 | 36.56898 | -114.28294 | 39799 ft | 469 kts | 220° |
| 2026-05-05 22:18 | 36.51863 | -114.33439 | 39796 ft | 467 kts | 220° |
| 2026-05-05 22:19 | 36.46849 | -114.38555 | 39792 ft | 466 kts | 220° |
| 2026-05-05 22:19 | 36.41863 | -114.43633 | 39790 ft | 467 kts | 220° |
| 2026-05-05 22:20 | 36.36840 | -114.48739 | 39788 ft | 468 kts | 220° |
| 2026-05-05 22:20 | 36.31792 | -114.53863 | 39786 ft | 468 kts | 220° |
| 2026-05-05 22:21 | 36.26755 | -114.58967 | 39782 ft | 468 kts | 220° |
| 2026-05-05 22:21 | 36.21756 | -114.64024 | 39791 ft | 466 kts | 220° |
| 2026-05-05 22:22 | 36.16740 | -114.69088 | 39811 ft | 465 kts | 220° |
| 2026-05-05 22:22 | 36.11728 | -114.74141 | 39832 ft | 465 kts | 220° |
| 2026-05-05 22:23 | 36.06712 | -114.79188 | 39862 ft | 465 kts | 220° |
| 2026-05-05 22:23 | 36.01731 | -114.84193 | 39868 ft | 465 kts | 220° |
| 2026-05-05 22:24 | 35.96747 | -114.89263 | 39872 ft | 465 kts | 221° |
| 2026-05-05 22:24 | 35.91844 | -114.94431 | 39868 ft | 462 kts | 221° |
| 2026-05-05 22:25 | 35.86959 | -114.99554 | 39868 ft | 460 kts | 221° |
| 2026-05-05 22:25 | 35.82099 | -115.04633 | 39888 ft | 463 kts | 221° |
| 2026-05-05 22:26 | 35.77180 | -115.09761 | 39889 ft | 464 kts | 221° |
| 2026-05-05 22:26 | 35.72246 | -115.14894 | 39900 ft | 464 kts | 221° |
| 2026-05-05 22:27 | 35.67309 | -115.20021 | 39901 ft | 464 kts | 221° |
| 2026-05-05 22:27 | 35.62433 | -115.25078 | 39900 ft | 464 kts | 221° |
| 2026-05-05 22:28 | 35.57495 | -115.30190 | 39908 ft | 464 kts | 221° |
| 2026-05-05 22:28 | 35.52586 | -115.35262 | 39907 ft | 465 kts | 221° |
| 2026-05-05 22:29 | 35.47632 | -115.40374 | 39914 ft | 466 kts | 221° |
| 2026-05-05 22:29 | 35.42667 | -115.45487 | 39912 ft | 466 kts | 221° |
| 2026-05-05 22:30 | 35.37699 | -115.50596 | 39912 ft | 466 kts | 221° |
| 2026-05-05 22:30 | 35.32773 | -115.55652 | 39920 ft | 464 kts | 221° |
| 2026-05-05 22:31 | 35.27838 | -115.60710 | 39918 ft | 462 kts | 221° |
| 2026-05-05 22:31 | 35.22902 | -115.65761 | 39905 ft | 463 kts | 221° |
| 2026-05-05 22:32 | 35.17955 | -115.70815 | 39905 ft | 464 kts | 221° |
| 2026-05-05 22:32 | 35.13032 | -115.75836 | 39903 ft | 464 kts | 221° |
| 2026-05-05 22:33 | 35.08076 | -115.80881 | 39893 ft | 464 kts | 221° |
| 2026-05-05 22:33 | 35.03120 | -115.85919 | 39893 ft | 462 kts | 221° |
| 2026-05-05 22:34 | 34.98184 | -115.90929 | 39880 ft | 461 kts | 221° |
| 2026-05-05 22:34 | 34.93250 | -115.95927 | 39884 ft | 461 kts | 221° |
| 2026-05-05 22:35 | 34.88302 | -116.00933 | 39805 ft | 464 kts | 221° |
| 2026-05-05 22:35 | 34.85839 | -116.03422 | 39595 ft | 470 kts | 221° |
| 2026-05-05 22:35 | 34.83323 | -116.05963 | 39220 ft | 468 kts | 221° |
| 2026-05-05 22:35 | 34.80822 | -116.08485 | 38655 ft | 467 kts | 221° |
| 2026-05-05 22:36 | 34.78313 | -116.11014 | 37908 ft | 469 kts | 221° |
| 2026-05-05 22:36 | 34.75802 | -116.13542 | 37213 ft | 468 kts | 221° |
| 2026-05-05 22:36 | 34.73291 | -116.16068 | 36539 ft | 468 kts | 221° |
| 2026-05-05 22:36 | 34.70788 | -116.18585 | 35848 ft | 468 kts | 221° |
| 2026-05-05 22:37 | 34.68275 | -116.21109 | 35123 ft | 469 kts | 221° |
| 2026-05-05 22:37 | 34.65790 | -116.23603 | 34511 ft | 468 kts | 221° |
| 2026-05-05 22:37 | 34.63291 | -116.26109 | 33994 ft | 465 kts | 221° |
| 2026-05-05 22:37 | 34.60806 | -116.28601 | 33377 ft | 461 kts | 221° |
| 2026-05-05 22:38 | 34.58344 | -116.31065 | 32819 ft | 457 kts | 221° |
| 2026-05-05 22:38 | 34.55900 | -116.33510 | 32283 ft | 453 kts | 221° |
| 2026-05-05 22:38 | 34.53482 | -116.35926 | 31756 ft | 449 kts | 221° |
| 2026-05-05 22:38 | 34.51084 | -116.38323 | 31247 ft | 445 kts | 221° |
| 2026-05-05 22:39 | 34.48734 | -116.40669 | 30734 ft | 442 kts | 220° |
| 2026-05-05 22:39 | 34.46339 | -116.43058 | 30218 ft | 439 kts | 221° |
| 2026-05-05 22:39 | 34.44035 | -116.45391 | 29628 ft | 436 kts | 223° |
| 2026-05-05 22:39 | 34.41956 | -116.48015 | 29088 ft | 429 kts | 233° |
| 2026-05-05 22:40 | 34.40329 | -116.51005 | 28587 ft | 422 kts | 243° |
| 2026-05-05 22:40 | 34.38996 | -116.54150 | 28078 ft | 417 kts | 245° |
| 2026-05-05 22:40 | 34.37718 | -116.57281 | 27575 ft | 413 kts | 245° |
| 2026-05-05 22:40 | 34.36451 | -116.60378 | 27091 ft | 409 kts | 245° |
| 2026-05-05 22:41 | 34.35191 | -116.63447 | 26693 ft | 403 kts | 245° |
| 2026-05-05 22:41 | 34.33961 | -116.66435 | 26178 ft | 402 kts | 245° |
| 2026-05-05 22:41 | 34.32725 | -116.69455 | 25661 ft | 400 kts | 246° |
| 2026-05-05 22:41 | 34.31514 | -116.72477 | 25153 ft | 399 kts | 246° |
| 2026-05-05 22:42 | 34.30307 | -116.75493 | 24655 ft | 398 kts | 245° |
| 2026-05-05 22:42 | 34.29097 | -116.78505 | 24179 ft | 399 kts | 246° |
| 2026-05-05 22:42 | 34.27876 | -116.81541 | 23931 ft | 404 kts | 246° |
| 2026-05-05 22:42 | 34.26649 | -116.84589 | 23342 ft | 404 kts | 245° |
| 2026-05-05 22:43 | 34.25414 | -116.87648 | 22618 ft | 405 kts | 245° |
| 2026-05-05 22:43 | 34.24185 | -116.90689 | 22115 ft | 400 kts | 245° |
| 2026-05-05 22:43 | 34.22985 | -116.93655 | 21551 ft | 397 kts | 246° |
| 2026-05-05 22:43 | 34.21777 | -116.96646 | 20999 ft | 394 kts | 245° |
| 2026-05-05 22:44 | 34.20732 | -116.99680 | 20487 ft | 388 kts | 253° |
| 2026-05-05 22:44 | 34.19882 | -117.02759 | 19939 ft | 385 kts | 255° |
| 2026-05-05 22:44 | 34.19063 | -117.05823 | 19429 ft | 382 kts | 254° |
| 2026-05-05 22:44 | 34.18248 | -117.08859 | 18929 ft | 378 kts | 255° |
| 2026-05-05 22:45 | 34.17440 | -117.11860 | 18426 ft | 374 kts | 255° |
| 2026-05-05 22:45 | 34.16635 | -117.14837 | 17888 ft | 371 kts | 254° |
| 2026-05-05 22:45 | 34.15849 | -117.17738 | 17332 ft | 367 kts | 253° |
| 2026-05-05 22:45 | 34.15049 | -117.20649 | 16857 ft | 363 kts | 253° |
| 2026-05-05 22:46 | 34.14254 | -117.23528 | 16302 ft | 360 kts | 253° |
| 2026-05-05 22:46 | 34.13466 | -117.26381 | 15788 ft | 356 kts | 253° |
| 2026-05-05 22:46 | 34.12687 | -117.29206 | 15299 ft | 352 kts | 253° |
| 2026-05-05 22:46 | 34.11920 | -117.31988 | 14832 ft | 347 kts | 252° |
| 2026-05-05 22:47 | 34.11160 | -117.34738 | 14355 ft | 343 kts | 253° |
| 2026-05-05 22:47 | 34.10410 | -117.37450 | 13988 ft | 338 kts | 252° |
| 2026-05-05 22:47 | 34.09718 | -117.40118 | 13535 ft | 338 kts | 254° |
| 2026-05-05 22:47 | 34.09061 | -117.42790 | 13243 ft | 328 kts | 255° |
| 2026-05-05 22:48 | 34.08418 | -117.45394 | 12973 ft | 322 kts | 255° |
| 2026-05-05 22:48 | 34.07781 | -117.47959 | 12613 ft | 316 kts | 256° |
| 2026-05-05 22:48 | 34.07213 | -117.50481 | 12300 ft | 309 kts | 259° |
| 2026-05-05 22:48 | 34.06772 | -117.52992 | 11852 ft | 305 kts | 261° |
| 2026-05-05 22:49 | 34.06358 | -117.55476 | 11458 ft | 301 kts | 261° |
| 2026-05-05 22:49 | 34.05949 | -117.57926 | 11103 ft | 296 kts | 262° |
| 2026-05-05 22:49 | 34.05548 | -117.60320 | 10752 ft | 295 kts | 261° |
| 2026-05-05 22:49 | 34.05141 | -117.62733 | 10415 ft | 295 kts | 261° |
| 2026-05-05 22:50 | 34.04731 | -117.65157 | 10053 ft | 293 kts | 261° |
| 2026-05-05 22:50 | 34.04326 | -117.67535 | 9517 ft | 288 kts | 261° |
| 2026-05-05 22:50 | 34.03923 | -117.69926 | 9162 ft | 291 kts | 261° |
| 2026-05-05 22:50 | 34.03522 | -117.72300 | 8800 ft | 287 kts | 261° |
| 2026-05-05 22:51 | 34.03122 | -117.74643 | 8464 ft | 284 kts | 261° |
| 2026-05-05 22:51 | 34.02727 | -117.76968 | 8118 ft | 282 kts | 261° |
| 2026-05-05 22:51 | 34.02334 | -117.79279 | 7786 ft | 280 kts | 261° |
| 2026-05-05 22:51 | 34.01950 | -117.81538 | 7455 ft | 279 kts | 261° |
| 2026-05-05 22:52 | 34.01561 | -117.83817 | 7118 ft | 277 kts | 259° |
| 2026-05-05 22:52 | 34.01172 | -117.86081 | 6791 ft | 275 kts | 260° |
| 2026-05-05 22:52 | 34.00807 | -117.88332 | 6457 ft | 272 kts | 263° |
| 2026-05-05 22:52 | 34.00309 | -117.90520 | 6128 ft | 271 kts | 249° |
| 2026-05-05 22:53 | 33.99575 | -117.92598 | 5816 ft | 268 kts | 246° |
| 2026-05-05 22:53 | 33.98848 | -117.94608 | 5630 ft | 256 kts | 248° |
| 2026-05-05 22:53 | 33.98272 | -117.96593 | 5459 ft | 245 kts | 254° |
| 2026-05-05 22:53 | 33.97893 | -117.98541 | 5310 ft | 234 kts | 259° |
| 2026-05-05 22:54 | 33.97643 | -118.00406 | 5191 ft | 223 kts | 261° |
| 2026-05-05 22:54 | 33.97447 | -118.02225 | 5120 ft | 215 kts | 262° |
| 2026-05-05 22:54 | 33.97270 | -118.03975 | 5197 ft | 205 kts | 262° |
| 2026-05-05 22:54 | 33.97108 | -118.05621 | 5199 ft | 191 kts | 262° |
| 2026-05-05 22:55 | 33.96950 | -118.07160 | 5067 ft | 181 kts | 263° |
| 2026-05-05 22:55 | 33.96796 | -118.08629 | 4931 ft | 172 kts | 263° |
| 2026-05-05 22:55 | 33.96647 | -118.10006 | 4782 ft | 161 kts | 262° |
| 2026-05-05 22:55 | 33.96507 | -118.11312 | 4581 ft | 154 kts | 263° |
| 2026-05-05 22:56 | 33.96380 | -118.12565 | 4357 ft | 152 kts | 263° |
| 2026-05-05 22:56 | 33.96253 | -118.13809 | 4132 ft | 149 kts | 262° |
| 2026-05-05 22:56 | 33.96128 | -118.15028 | 3906 ft | 145 kts | 262° |
| 2026-05-05 22:56 | 33.96007 | -118.16212 | 3724 ft | 141 kts | 262° |
| 2026-05-05 22:57 | 33.95889 | -118.17355 | 3534 ft | 136 kts | 262° |
| 2026-05-05 22:57 | 33.95775 | -118.18466 | 3358 ft | 131 kts | 262° |
| 2026-05-05 22:57 | 33.95665 | -118.19538 | 3200 ft | 127 kts | 261° |
| 2026-05-05 22:57 | 33.95557 | -118.20584 | 3028 ft | 124 kts | 261° |
| 2026-05-05 22:58 | 33.95453 | -118.21599 | 2852 ft | 123 kts | 260° |
| 2026-05-05 22:58 | 33.95347 | -118.22625 | 2704 ft | 123 kts | 261° |
| 2026-05-05 22:58 | 33.95243 | -118.23641 | 2531 ft | 121 kts | 260° |
| 2026-05-05 22:58 | 33.95140 | -118.24640 | 2368 ft | 120 kts | 261° |
| 2026-05-05 22:59 | 33.95038 | -118.25635 | 2199 ft | 119 kts | 259° |
| 2026-05-05 22:59 | 33.94934 | -118.26633 | 2047 ft | 121 kts | 260° |
| 2026-05-05 22:59 | 33.94830 | -118.27651 | 1893 ft | 125 kts | 261° |
| 2026-05-05 22:59 | 33.94724 | -118.28689 | 1732 ft | 125 kts | 260° |
| 2026-05-05 23:00 | 33.94513 | -118.30750 | 1398 ft | 123 kts | 261° |
| 2026-05-05 23:00 | 33.94408 | -118.31760 | 1201 ft | 123 kts | 262° |
| 2026-05-05 23:00 | 33.94303 | -118.32785 | 1040 ft | 122 kts | 260° |
| 2026-05-05 23:01 | 33.94201 | -118.33775 | 867 ft | 118 kts | 261° |
| 2026-05-05 23:01 | 33.94099 | -118.34759 | 700 ft | 120 kts | 262° |
| 2026-05-05 23:01 | 33.93996 | -118.35767 | 548 ft | 120 kts | 261° |
| 2026-05-05 23:01 | 33.93897 | -118.36750 | 393 ft | 117 kts | 263° |
| 2026-05-05 23:02 | 33.93788 | -118.37733 | 224 ft | 119 kts | 262° |
| 2026-05-05 23:02 | 33.93688 | -118.38712 | 122 ft | 120 kts | 261° |
| 2026-05-05 23:02 | 33.93604 | -118.39586 | 102 ft | 87 kts | 264° |
| 2026-05-05 23:02 | 33.93568 | -118.39946 | 102 ft | 0 kts | 264° |
| 2026-05-05 23:03 | 33.93564 | -118.40004 | 105 ft | 17 kts | 268° |
| 2026-05-05 23:03 | 33.93570 | -118.40162 | 101 ft | 20 kts | 277° |
| 2026-05-05 23:03 | 33.93607 | -118.40320 | 105 ft | 20 kts | 292° |
| 2026-05-05 23:03 | 33.93622 | -118.40478 | 103 ft | 16 kts | 264° |
| 2026-05-05 23:04 | 33.93609 | -118.40618 | 103 ft | 18 kts | 263° |
| 2026-05-05 23:04 | 33.93594 | -118.40776 | 102 ft | 19 kts | 266° |
| 2026-05-05 23:04 | 33.93578 | -118.40918 | 103 ft | 15 kts | 262° |
| 2026-05-05 23:04 | 33.93563 | -118.41053 | 102 ft | 17 kts | 263° |
| 2026-05-05 23:05 | 33.93569 | -118.41205 | 104 ft | 19 kts | 294° |
| 2026-05-05 23:05 | 33.93675 | -118.41270 | 103 ft | 18 kts | 351° |
| 2026-05-05 23:05 | 33.93778 | -118.41249 | 102 ft | 9 kts | 2° |
| 2026-05-05 23:05 | 33.93834 | -118.41207 | 103 ft | 11 kts | 49° |
| 2026-05-05 23:06 | 33.93901 | -118.41171 | 101 ft | 5 kts | 359° |
| 2026-05-05 23:06 | 33.93905 | -118.41171 | 101 ft | 0 kts | 357° |
| 2026-05-05 23:06 | 33.93911 | -118.41171 | 101 ft | 2 kts | 357° |
| 2026-05-05 23:06 | 33.93934 | -118.41168 | 101 ft | 2 kts | 19° |
| 2026-05-05 23:07 | 33.93939 | -118.41156 | 100 ft | 1 kts | 66° |
| 2026-05-05 23:07 | 33.93938 | -118.41150 | 99 ft | 3 kts | 88° |
| 2026-05-05 23:07 | 33.93939 | -118.41105 | 102 ft | 5 kts | 85° |
| 2026-05-05 23:07 | 33.93942 | -118.41079 | 102 ft | 0 kts | 84° |
| 2026-05-05 23:08 | 33.93943 | -118.41064 | 101 ft | 0 kts | 83° |